createdAt,value
2019-04-24T00:01:21.317Z,7.23
2019-04-24T00:04:03.962Z,9.43
2019-04-24T00:06:38.518Z,8.07
2019-04-24T00:17:42.072Z,8.03
2019-04-24T00:20:08.242Z,7.13
2019-04-24T00:22:30.467Z,9.43
2019-04-24T00:25:19.445Z,9.47
2019-04-24T00:27:25.495Z,10.77
2019-04-24T00:32:32.838Z,11.23
2019-04-24T00:35:09.596Z,7.50
2019-04-24T00:37:37.826Z,9.50
2019-04-24T00:39:56.985Z,9.07
2019-04-24T00:42:41.514Z,12.80
2019-04-24T00:45:16.768Z,7.73
2019-04-24T00:47:39.421Z,8.53
2019-04-24T00:52:44.837Z,8.83
2019-04-24T00:55:10.811Z,10.53
2019-04-24T01:00:04.645Z,12.37
2019-04-24T01:03:13.511Z,13.90
2019-04-24T01:14:05.283Z,9.27
2019-04-24T01:23:43.683Z,10.80
2019-04-24T01:26:18.721Z,7.63
2019-04-24T01:28:56.455Z,10.00
2019-04-24T01:34:21.676Z,7.17
2019-04-24T01:36:59.185Z,12.83
2019-04-24T01:39:48.732Z,11.13
2019-04-24T01:44:45.795Z,8.07
2019-04-24T01:49:47.523Z,8.70
2019-04-24T02:02:43.204Z,11.03
2019-04-24T02:04:58.017Z,8.50
2019-04-24T02:10:31.592Z,7.60
2019-04-24T02:15:27.585Z,10.97
2019-04-24T02:20:31.039Z,6.97
2019-04-24T02:22:50.299Z,8.73
2019-04-24T02:25:25.987Z,9.30
2019-04-24T02:30:46.452Z,9.23
2019-04-24T02:34:16.093Z,12.13
2019-04-24T02:36:31.728Z,9.53
2019-04-24T02:39:31.896Z,8.40
2019-04-24T02:49:37.745Z,8.03
2019-04-24T02:56:58.543Z,12.30
2019-04-24T02:59:22.885Z,10.20
2019-04-24T03:02:03.033Z,10.13
2019-04-24T03:10:04.368Z,9.00
2019-04-24T03:18:00.767Z,11.77
2019-04-24T03:23:19.779Z,13.70
2019-04-24T03:26:19.787Z,7.63
2019-04-24T03:48:56.885Z,8.70
2019-04-24T03:54:10.440Z,7.70
2019-04-24T03:59:24.299Z,13.80
2019-04-24T04:05:06.202Z,9.80
2019-04-24T04:07:30.011Z,8.83
2019-04-24T04:10:07.136Z,10.83
2019-04-24T04:12:55.615Z,10.53
2019-04-24T04:18:27.825Z,15.20
2019-04-24T04:20:50.913Z,11.40
2019-04-24T04:28:46.151Z,14.17
2019-04-24T04:31:38.549Z,14.80
2019-04-24T04:34:24.010Z,14.77
2019-04-24T04:36:41.778Z,13.10
2019-04-24T04:44:35.855Z,11.43
2019-04-24T04:52:59.451Z,15.37
2019-04-24T05:03:39.695Z,12.43
2019-04-24T05:09:01.614Z,11.10
2019-04-24T05:13:18.228Z,13.57
2019-04-24T05:20:57.356Z,12.67
2019-04-24T05:23:46.365Z,12.00
2019-04-24T05:27:01.815Z,10.70
2019-04-24T05:29:07.208Z,9.53
2019-04-24T05:31:43.972Z,12.03
2019-04-24T05:34:10.516Z,11.57
2019-04-24T05:37:01.786Z,10.03
2019-04-24T05:39:42.546Z,8.73
2019-04-24T05:42:19.416Z,10.47
2019-04-24T05:44:31.338Z,10.10
2019-04-24T05:47:26.305Z,14.93
2019-04-24T05:50:08.550Z,11.73
2019-04-24T05:55:50.972Z,8.83
2019-04-24T05:58:21.239Z,11.27
2019-04-24T06:04:13.499Z,10.67
2019-04-24T06:07:06.220Z,9.90
2019-04-24T06:09:34.913Z,8.40
2019-04-24T06:12:29.903Z,9.83
2019-04-24T06:15:21.033Z,12.07
2019-04-24T06:24:05.359Z,13.10
2019-04-24T06:32:08.201Z,10.97
2019-04-24T06:37:13.177Z,10.97
2019-04-24T06:43:00.326Z,12.73
2019-04-24T06:48:01.549Z,8.53
2019-04-24T06:58:26.997Z,8.67
2019-04-24T07:01:10.510Z,12.23
2019-04-24T07:06:38.753Z,11.10
2019-04-24T07:09:35.070Z,11.37
2019-04-24T07:12:28.471Z,10.90
2019-04-24T07:15:27.089Z,11.00
2019-04-24T07:20:54.442Z,10.20
2019-04-24T07:28:35.129Z,16.97
2019-04-24T07:31:49.757Z,12.67
2019-04-24T07:42:29.414Z,12.93
2019-04-24T07:47:29.018Z,11.87
2019-04-24T07:50:07.495Z,8.00
2019-04-24T07:52:59.831Z,11.10
2019-04-24T07:55:25.861Z,17.37
2019-04-24T07:58:01.034Z,16.33
2019-04-24T08:05:37.171Z,8.17
2019-04-24T08:08:06.723Z,9.10
2019-04-24T08:16:03.311Z,9.03
2019-04-24T08:18:28.026Z,8.37
2019-04-24T08:20:57.444Z,9.17
2019-04-24T08:26:17.363Z,13.10
2019-04-24T08:28:45.965Z,8.50
2019-04-24T08:31:33.108Z,11.27
2019-04-24T08:39:27.063Z,10.70
2019-04-24T08:42:15.096Z,10.10
2019-04-24T08:44:52.017Z,10.33
2019-04-24T08:47:12.365Z,11.77
2019-04-24T08:49:55.593Z,7.20
2019-04-24T08:55:04.960Z,5.93
2019-04-24T09:00:20.154Z,7.60
2019-04-24T09:03:05.699Z,6.80
2019-04-24T09:05:37.617Z,6.83
2019-04-24T09:08:12.816Z,4.60
2019-04-24T09:11:08.688Z,7.40
2019-04-24T09:16:25.290Z,9.43
2019-04-24T09:18:59.588Z,7.47
2019-04-24T09:21:23.446Z,5.57
2019-04-24T09:29:39.201Z,6.80
2019-04-24T09:34:35.936Z,6.83
2019-04-24T09:37:26.563Z,5.37
2019-04-24T09:40:39.990Z,5.20
2019-04-24T09:43:27.276Z,5.90
2019-04-24T09:45:43.626Z,8.20
2019-04-24T09:48:42.282Z,6.80
2019-04-24T09:51:02.435Z,4.73
2019-04-24T09:55:57.155Z,8.77
2019-04-24T09:58:41.869Z,5.13
2019-04-24T10:04:20.632Z,4.90
2019-04-24T10:07:09.815Z,6.77
2019-04-24T10:09:18.375Z,6.80
2019-04-24T10:14:26.851Z,5.93
2019-04-24T10:17:05.441Z,6.73
2019-04-24T10:22:47.956Z,5.73
2019-04-24T10:35:53.049Z,4.90
2019-04-24T10:41:46.726Z,5.30
2019-04-24T10:44:46.652Z,6.63
2019-04-24T10:50:33.514Z,5.13
2019-04-24T10:56:16.619Z,6.57
2019-04-24T10:58:37.422Z,7.53
2019-04-24T11:04:34.826Z,6.17
2019-04-24T11:07:12.950Z,5.73
2019-04-24T11:10:29.804Z,5.93
2019-04-24T11:19:20.364Z,6.03
2019-04-24T11:21:54.733Z,6.53
2019-04-24T11:26:59.402Z,6.93
2019-04-24T11:29:31.012Z,6.80
2019-04-24T11:32:24.829Z,4.57
2019-04-24T11:37:47.106Z,5.70
2019-04-24T11:42:59.341Z,6.90
2019-04-24T11:45:52.763Z,4.10
2019-04-24T11:49:04.846Z,6.17
2019-04-24T11:51:52.383Z,5.90
2019-04-24T11:54:22.656Z,5.60
2019-04-24T11:57:27.914Z,5.40
2019-04-24T11:59:37.904Z,5.90
2019-04-24T12:02:32.396Z,7.80
2019-04-24T12:05:45.033Z,4.33
2019-04-24T12:16:06.463Z,3.72
2019-04-24T12:18:46.680Z,4.37
2019-04-24T12:26:37.248Z,4.97
2019-04-24T12:29:35.676Z,6.13
2019-04-24T12:32:09.782Z,9.90
2019-04-24T12:37:13.680Z,4.43
2019-04-24T12:45:10.354Z,7.07
2019-04-24T12:47:49.615Z,3.60
2019-04-24T12:50:13.371Z,6.17
2019-04-24T12:52:50.480Z,5.33
2019-04-24T12:55:42.372Z,7.42
2019-04-24T12:58:35.232Z,11.47
2019-04-24T13:04:19.157Z,6.83
2019-04-24T13:06:38.443Z,4.83
2019-04-24T13:18:53.665Z,6.42
2019-04-24T13:20:30.959Z,5.70
2019-04-24T13:23:13.601Z,4.92
2019-04-24T13:26:11.419Z,6.25
2019-04-24T13:29:15.700Z,5.17
2019-04-24T13:31:56.512Z,5.30
2019-04-24T13:34:24.094Z,4.42
2019-04-24T13:37:09.989Z,5.80
2019-04-24T13:39:47.775Z,5.40
2019-04-24T13:44:44.485Z,5.45
2019-04-24T13:47:09.447Z,6.58
2019-04-24T13:49:48.945Z,6.42
2019-04-24T13:54:50.090Z,7.37
2019-04-24T13:57:15.496Z,8.30
2019-04-24T13:59:58.527Z,6.85
2019-04-24T14:02:25.072Z,4.65
2019-04-24T14:04:58.922Z,4.97
2019-04-24T14:07:27.118Z,5.00
2019-04-24T14:10:36.764Z,4.45
2019-04-24T14:17:34.987Z,4.70
2019-04-24T14:20:18.930Z,12.50
2019-04-24T14:23:05.052Z,6.42
2019-04-24T14:25:28.696Z,5.17
2019-04-24T14:28:04.379Z,3.30
2019-04-24T14:30:32.188Z,3.83
2019-04-24T14:33:05.917Z,3.73
2019-04-24T14:35:38.429Z,4.40
2019-04-24T14:40:43.787Z,5.00
2019-04-24T14:43:09.931Z,3.87
2019-04-24T14:45:50.531Z,7.83
2019-04-24T14:48:03.849Z,5.03
2019-04-24T14:50:44.035Z,9.08
2019-04-24T14:53:06.414Z,8.40
2019-04-24T14:55:50.491Z,5.60
2019-04-24T14:58:14.199Z,6.72
2019-04-24T15:00:54.633Z,3.80
2019-04-24T15:03:15.274Z,3.72
2019-04-24T15:05:59.361Z,6.60
2019-04-24T15:10:58.519Z,7.05
2019-04-24T15:16:21.590Z,5.10
2019-04-24T15:18:41.524Z,4.53
2019-04-24T15:24:05.452Z,7.53
2019-04-24T15:28:46.566Z,4.12
2019-04-24T15:31:07.035Z,7.37
2019-04-24T15:39:19.133Z,3.90
2019-04-24T15:42:26.571Z,7.13
2019-04-24T15:52:04.879Z,3.17
2019-04-24T15:54:35.570Z,3.87
2019-04-24T15:57:04.944Z,4.83
2019-04-24T16:00:13.483Z,3.97
2019-04-24T16:02:59.916Z,5.90
2019-04-24T16:04:55.206Z,6.17
2019-04-24T16:07:33.394Z,5.07
2019-04-24T16:10:11.563Z,8.43
2019-04-24T16:12:40.807Z,6.73
2019-04-24T16:15:41.871Z,5.10
2019-04-24T16:21:21.034Z,4.87
2019-04-24T16:24:55.288Z,5.80
2019-04-24T16:27:15.444Z,6.03
2019-04-24T16:29:39.204Z,6.93
2019-04-24T16:32:35.838Z,4.50
2019-04-24T16:34:49.691Z,6.20
2019-04-24T16:37:16.304Z,5.70
2019-04-24T16:40:07.272Z,25.93
2019-04-24T16:45:45.173Z,3.97
2019-04-24T16:48:26.817Z,2.80
2019-04-24T16:50:40.036Z,3.40
2019-04-24T16:53:05.574Z,6.07
2019-04-24T16:55:27.464Z,2.50
2019-04-24T17:03:22.592Z,2.57
2019-04-24T17:10:41.363Z,2.00
2019-04-24T17:15:43.858Z,1.07
2019-04-24T17:18:14.022Z,1.60
2019-04-24T17:21:11.992Z,1.57
2019-04-24T17:23:18.069Z,0.53
2019-04-24T17:26:07.991Z,2.13
2019-04-24T17:28:29.625Z,1.27
2019-04-24T17:31:07.858Z,2.87
2019-04-24T17:33:24.654Z,2.67
2019-04-24T17:36:06.721Z,1.93
2019-04-24T17:38:33.082Z,3.07
2019-04-24T17:41:06.784Z,1.03
2019-04-24T17:44:15.647Z,0.40
2019-04-24T17:46:34.362Z,2.20
2019-04-24T17:49:13.822Z,1.47
2019-04-24T17:51:34.399Z,0.47
2019-04-24T17:54:09.618Z,1.20
2019-04-24T17:56:53.886Z,1.53
2019-04-24T17:58:45.804Z,0.53
2019-04-24T18:01:16.869Z,2.83
2019-04-24T18:03:46.678Z,1.10
2019-04-24T18:06:16.105Z,0.77
2019-04-24T18:08:45.589Z,1.33
2019-04-24T18:11:16.045Z,1.87
2019-04-24T18:13:46.004Z,0.73
2019-04-24T18:16:15.673Z,0.60
2019-04-24T18:18:45.062Z,0.40
2019-04-24T18:21:14.549Z,0.40
2019-04-24T18:23:44.012Z,0.67
2019-04-24T18:26:48.174Z,0.83
2019-04-24T18:29:19.774Z,0.50
2019-04-24T18:31:50.965Z,1.53
2019-04-24T18:34:21.378Z,1.53
2019-04-24T18:36:51.568Z,3.40
2019-04-24T18:39:21.732Z,0.63
2019-04-24T18:41:51.488Z,4.30
2019-04-24T18:44:22.473Z,1.10
2019-04-24T18:46:52.379Z,1.43
2019-04-24T18:49:23.221Z,1.83
2019-04-24T18:51:55.365Z,4.57
2019-04-24T18:54:24.822Z,1.97
2019-04-24T18:56:57.834Z,2.00
2019-04-24T18:59:28.704Z,3.70
2019-04-24T19:01:58.272Z,4.17
2019-04-24T19:04:41.267Z,1.20
2019-04-24T19:07:12.816Z,3.53
2019-04-24T19:09:43.355Z,1.23
2019-04-24T19:12:13.841Z,1.57
2019-04-24T19:14:43.974Z,1.20
2019-04-24T19:17:15.904Z,3.30
2019-04-24T19:19:46.404Z,1.77
2019-04-24T19:22:18.376Z,3.77
2019-04-24T19:24:49.697Z,1.43
2019-04-24T19:27:21.199Z,1.07
2019-04-24T19:29:52.912Z,5.77
2019-04-24T19:32:23.429Z,1.37
2019-04-24T19:34:56.964Z,2.20
2019-04-24T19:37:27.038Z,1.00
2019-04-24T19:40:32.180Z,2.37
2019-04-24T19:43:07.860Z,3.10
2019-04-24T19:46:03.494Z,1.03
2019-04-24T19:48:32.878Z,1.43
2019-04-24T19:51:02.391Z,2.43
2019-04-24T19:53:32.643Z,2.10
2019-04-24T19:56:23.180Z,3.10
2019-04-24T19:58:52.888Z,3.97
2019-04-24T20:01:24.515Z,8.50
2019-04-24T20:03:53.866Z,4.17
2019-04-24T20:06:23.526Z,2.13
2019-04-24T20:08:55.691Z,3.70
2019-04-24T20:11:32.631Z,4.33
2019-04-24T20:14:02.353Z,3.13
2019-04-24T20:16:33.128Z,2.00
2019-04-24T20:19:03.253Z,3.10
2019-04-24T20:21:32.985Z,3.23
2019-04-24T20:24:04.517Z,1.87
2019-04-24T20:26:36.978Z,1.43
2019-04-24T20:29:08.346Z,2.27
2019-04-24T20:31:37.716Z,1.87
2019-04-24T20:34:07.092Z,1.10
2019-04-24T20:36:41.575Z,2.47
2019-04-24T20:39:13.136Z,1.63
2019-04-24T20:41:43.606Z,0.93
2019-04-24T20:44:14.086Z,1.87
2019-04-24T20:46:43.414Z,1.67
2019-04-24T20:49:13.603Z,1.63
2019-04-24T20:51:51.142Z,2.90
2019-04-24T20:54:22.220Z,1.27
2019-04-24T20:56:51.820Z,2.63
2019-04-24T20:59:23.045Z,1.27
2019-04-24T21:01:53.437Z,3.63
2019-04-24T21:04:23.876Z,1.50
2019-04-24T21:07:24.051Z,1.80
2019-04-24T21:10:02.059Z,1.03
2019-04-24T21:12:32.097Z,1.97
2019-04-24T21:15:20.474Z,1.93
2019-04-24T21:17:49.946Z,1.50
2019-04-24T21:20:22.407Z,1.70
2019-04-24T21:22:56.194Z,3.90
2019-04-24T21:25:26.451Z,2.77
2019-04-24T21:27:57.753Z,1.47
2019-04-24T21:30:28.126Z,1.33
2019-04-24T21:33:06.509Z,1.70
2019-04-24T21:35:35.982Z,2.67
2019-04-24T21:38:06.929Z,1.30
2019-04-24T21:40:36.495Z,2.50
2019-04-24T21:43:06.627Z,2.20
2019-04-24T21:45:36.687Z,1.50
2019-04-24T21:48:06.080Z,3.30
2019-04-24T21:50:35.466Z,1.83
2019-04-24T21:53:05.382Z,2.07
2019-04-24T21:55:34.827Z,1.40
2019-04-24T21:58:05.984Z,2.07
2019-04-24T22:01:04.935Z,2.23
2019-04-24T22:03:41.786Z,2.97
2019-04-24T22:06:15.830Z,6.10
2019-04-24T22:08:45.124Z,2.67
2019-04-24T22:11:15.367Z,1.67
2019-04-24T22:13:44.900Z,2.97
2019-04-24T22:16:14.631Z,3.60
2019-04-24T22:18:44.065Z,2.17
2019-04-24T22:21:17.429Z,2.00
2019-04-24T22:24:02.033Z,1.67
2019-04-24T22:26:33.183Z,1.30
2019-04-24T22:29:03.510Z,2.53
2019-04-24T22:32:02.145Z,2.20
2019-04-24T22:34:36.859Z,2.07
2019-04-24T22:37:06.199Z,4.20
2019-04-24T22:39:41.345Z,2.93
2019-04-24T22:42:11.713Z,3.57
2019-04-24T22:44:41.614Z,2.33
2019-04-24T22:47:11.389Z,1.50
2019-04-24T22:49:41.507Z,3.93
2019-04-24T22:52:11.326Z,1.77
2019-04-24T22:54:43.434Z,2.30
2019-04-24T22:57:12.962Z,2.13
2019-04-24T22:59:43.528Z,1.33
2019-04-24T23:02:13.252Z,1.70
2019-04-24T23:04:48.748Z,2.27
2019-04-24T23:07:18.522Z,2.17
2019-04-24T23:09:49.233Z,1.60
2019-04-24T23:12:18.888Z,2.10
2019-04-24T23:14:48.857Z,1.80
2019-04-24T23:17:18.387Z,2.07
2019-04-24T23:19:48.031Z,2.40
2019-04-24T23:22:43.229Z,2.20
2019-04-24T23:25:18.741Z,1.67
2019-04-24T23:28:06.805Z,1.90
2019-04-24T23:31:13.385Z,2.27
2019-04-24T23:33:46.634Z,2.57
2019-04-24T23:36:15.942Z,2.87
2019-04-24T23:38:45.655Z,2.30
2019-04-24T23:41:15.328Z,3.37
2019-04-24T23:43:44.684Z,2.33
2019-04-24T23:46:14.268Z,2.50
2019-04-24T23:48:45.546Z,3.53
2019-04-24T23:51:14.951Z,2.83
2019-04-24T23:53:44.453Z,5.03
2019-04-24T23:56:13.570Z,2.40
2019-04-24T23:58:44.362Z,1.90
